Time;durP1;ratioP1;P1;durP2;ratioP2;P2;SDS_P1;SDS_P2;PMS_P1;PMS_P2;Temp;Humidity;BMP_temperature;BMP_pressure;BME280_temperature;BME280_humidity;BME280_pressure;Samples;Min_cycle;Max_cycle;Signal;HPM_P1;HPM_P2
2022/07/17 00:01:45;;;;;;;2.05;0.55;;;22.90;54.30;;;;;;4491960;31;20065;-69
2022/07/17 00:04:16;;;;;;;2.05;0.40;;;22.90;54.30;;;;;;4492378;31;20210;-68
2022/07/17 00:06:41;;;;;;;1.60;0.68;;;22.90;54.30;;;;;;4491942;31;20088;-68
2022/07/17 00:09:07;;;;;;;3.47;0.63;;;22.90;54.30;;;;;;4492265;31;20069;-68
2022/07/17 00:11:33;;;;;;;1.52;0.60;;;22.90;54.30;;;;;;4491810;31;20073;-68
2022/07/17 00:13:59;;;;;;;1.83;0.50;;;22.90;54.30;;;;;;4491937;31;20122;-68
2022/07/17 00:16:25;;;;;;;1.55;0.50;;;22.90;54.30;;;;;;4491632;31;20183;-68
2022/07/17 00:18:51;;;;;;;1.30;0.60;;;22.90;54.30;;;;;;4491904;31;20243;-68
2022/07/17 00:21:17;;;;;;;1.75;0.60;;;22.90;54.30;;;;;;4492039;31;20215;-68
2022/07/17 00:23:43;;;;;;;1.02;0.40;;;22.90;54.30;;;;;;4491817;31;20077;-68
2022/07/17 00:26:09;;;;;;;1.73;0.50;;;22.80;54.30;;;;;;4491335;31;20072;-70
2022/07/17 00:28:35;;;;;;;1.00;0.60;;;22.80;54.30;;;;;;4491650;31;20127;-68
2022/07/17 00:31:01;;;;;;;0.82;0.38;;;22.80;54.30;;;;;;4491899;31;20258;-68
2022/07/17 00:33:27;;;;;;;2.42;0.63;;;22.80;54.30;;;;;;4491592;31;20406;-68
2022/07/17 00:35:52;;;;;;;1.45;0.55;;;22.80;54.30;;;;;;4491857;31;20379;-68
2022/07/17 00:38:18;;;;;;;1.83;0.60;;;22.80;54.30;;;;;;4491675;31;20123;-68
2022/07/17 00:40:44;;;;;;;1.73;0.60;;;22.80;54.30;;;;;;4491745;31;20211;-68
2022/07/17 00:43:10;;;;;;;1.10;0.45;;;22.80;54.30;;;;;;4491760;31;20092;-68
2022/07/17 00:45:36;;;;;;;1.48;0.68;;;22.80;54.30;;;;;;4491502;31;20489;-68
2022/07/17 00:48:09;;;;;;;1.17;0.50;;;22.80;54.30;;;;;;4491528;31;20211;-68
2022/07/17 00:50:41;;;;;;;1.13;0.55;;;22.80;54.40;;;;;;4491610;31;20085;-71
2022/07/17 00:53:08;;;;;;;2.20;0.47;;;22.80;54.30;;;;;;4477675;31;20081;-68
2022/07/17 00:55:34;;;;;;;1.70;0.65;;;22.80;54.40;;;;;;4491394;31;20235;-68
2022/07/17 00:58:03;;;;;;;1.33;0.50;;;22.80;54.40;;;;;;4491591;31;20250;-68
2022/07/17 01:00:30;;;;;;;0.52;0.38;;;22.80;54.40;;;;;;4477501;31;20110;-68
2022/07/17 01:02:56;;;;;;;1.40;0.40;;;22.70;54.30;;;;;;4491232;31;20073;-68
2022/07/17 01:05:23;;;;;;;1.42;0.40;;;22.80;54.40;;;;;;4491614;31;20151;-68
2022/07/17 01:07:49;;;;;;;1.40;0.50;;;22.80;54.40;;;;;;4477243;32;20502;-68
2022/07/17 01:10:17;;;;;;;1.02;0.50;;;22.70;54.40;;;;;;4491196;32;20135;-68
2022/07/17 01:12:44;;;;;;;1.92;0.52;;;22.70;54.40;;;;;;4477341;32;20077;-68
2022/07/17 01:15:11;;;;;;;1.02;0.60;;;22.70;54.40;;;;;;4491048;32;20077;-68
2022/07/17 01:17:37;;;;;;;0.55;0.38;;;22.70;54.40;;;;;;4491161;32;20084;-68
2022/07/17 01:20:05;;;;;;;0.95;0.50;;;22.70;54.40;;;;;;4491202;32;20065;-71
2022/07/17 01:22:32;;;;;;;1.08;0.40;;;22.70;54.50;;;;;;4491485;32;20230;-68
2022/07/17 01:24:57;;;;;;;1.65;0.70;;;22.70;54.50;;;;;;4491238;32;20199;-68
2022/07/17 01:27:23;;;;;;;0.93;0.40;;;22.70;54.50;;;;;;4491252;32;20227;-68
2022/07/17 01:29:49;;;;;;;2.45;0.30;;;22.60;54.50;;;;;;4491341;32;20417;-68
2022/07/17 01:32:15;;;;;;;0.82;0.40;;;22.70;54.50;;;;;;4491078;32;20083;-68
2022/07/17 01:34:41;;;;;;;0.70;0.40;;;22.70;54.50;;;;;;4476923;32;20101;-68
2022/07/17 01:37:07;;;;;;;1.48;0.68;;;22.70;54.60;;;;;;4491124;31;20077;-68
2022/07/17 01:42:17;;;;;;;0.90;0.50;;;22.70;54.60;;;;;;4494202;31;20533;-68
2022/07/17 01:44:42;;;;;;;0.88;0.35;;;22.60;54.60;;;;;;4494374;31;20081;-68
2022/07/17 01:47:08;;;;;;;1.33;0.50;;;22.60;54.60;;;;;;4494025;31;20076;-68
2022/07/17 01:49:34;;;;;;;3.13;0.70;;;22.60;54.60;;;;;;4494328;31;20069;-68
2022/07/17 01:52:00;;;;;;;0.50;0.32;;;22.60;54.60;;;;;;4494262;31;20099;-68
2022/07/17 01:54:33;;;;;;;1.83;0.52;;;22.60;54.60;;;;;;4493901;31;20084;-68
2022/07/17 01:56:59;;;;;;;0.95;0.40;;;22.60;54.70;;;;;;4494092;31;20088;-68
2022/07/17 01:59:25;;;;;;;1.05;0.50;;;22.60;54.70;;;;;;4479712;31;20091;-68
2022/07/17 02:01:51;;;;;;;1.35;0.52;;;22.60;54.70;;;;;;4494134;31;20100;-68
2022/07/17 02:04:17;;;;;;;1.17;0.30;;;22.60;54.70;;;;;;4493954;31;20096;-68
2022/07/17 02:06:42;;;;;;;0.75;0.40;;;22.60;54.70;;;;;;4493791;31;20401;-68
2022/07/17 02:09:08;;;;;;;0.88;0.47;;;22.60;54.70;;;;;;4494056;31;20053;-68
2022/07/17 02:11:34;;;;;;;0.65;0.45;;;22.60;54.80;;;;;;4479572;31;20486;-68
2022/07/17 02:14:00;;;;;;;0.50;0.32;;;22.60;54.80;;;;;;4493477;31;20085;-68
2022/07/17 02:16:26;;;;;;;1.55;0.50;;;22.60;54.80;;;;;;4493656;31;20061;-69
2022/07/17 02:18:52;;;;;;;0.77;0.50;;;22.50;54.80;;;;;;4493932;31;20069;-68
2022/07/17 02:21:18;;;;;;;1.13;0.50;;;22.50;54.80;;;;;;4493948;31;20080;-68
2022/07/17 02:23:44;;;;;;;0.70;0.32;;;22.50;54.80;;;;;;4493543;31;20074;-68
2022/07/17 02:26:09;;;;;;;0.40;0.30;;;22.50;54.80;;;;;;4493746;31;20082;-69
2022/07/17 02:28:35;;;;;;;1.05;0.40;;;22.50;55.80;;;;;;4493504;31;20533;-68
2022/07/17 02:31:01;;;;;;;0.98;0.38;;;22.50;54.80;;;;;;4493730;31;20583;-68
2022/07/17 02:33:27;;;;;;;0.70;0.40;;;22.50;54.80;;;;;;4493491;31;20080;-68
2022/07/17 02:35:53;;;;;;;0.65;0.30;;;22.50;54.80;;;;;;4479420;31;20521;-68
2022/07/17 02:38:19;;;;;;;2.03;0.45;;;22.50;54.90;;;;;;4493358;31;20165;-68
2022/07/17 02:40:44;;;;;;;0.95;0.43;;;22.50;54.90;;;;;;4493324;31;20064;-68
2022/07/17 02:43:12;;;;;;;1.85;0.50;;;22.50;54.90;;;;;;4493449;31;20410;-68
2022/07/17 02:45:38;;;;;;;0.73;0.30;;;22.50;55.00;;;;;;4490397;31;20091;-68
2022/07/17 02:48:04;;;;;;;0.43;0.40;;;22.50;54.90;;;;;;4492032;31;20221;-68
2022/07/17 02:50:30;;;;;;;0.85;0.40;;;22.50;55.00;;;;;;4492603;31;20510;-68
2022/07/17 02:52:55;;;;;;;0.93;0.40;;;22.50;55.00;;;;;;4493221;31;20083;-68
2022/07/17 02:55:21;;;;;;;0.70;0.35;;;22.50;55.00;;;;;;4493046;31;20198;-68
2022/07/17 02:57:47;;;;;;;0.88;0.32;;;22.50;55.00;;;;;;4493310;31;20083;-68
2022/07/17 03:00:16;;;;;;;1.30;0.43;;;22.50;55.00;;;;;;4493149;31;20089;-68
2022/07/17 03:02:43;;;;;;;0.20;0.20;;;22.50;55.00;;;;;;4492867;31;20084;-68
2022/07/17 03:05:10;;;;;;;1.45;0.40;;;22.50;55.10;;;;;;4493144;31;20630;-68
2022/07/17 03:07:35;;;;;;;0.90;0.40;;;22.50;55.10;;;;;;4492907;31;20092;-68
2022/07/17 03:10:02;;;;;;;0.77;0.50;;;22.50;55.10;;;;;;4493075;31;20128;-69
2022/07/17 03:12:28;;;;;;;1.20;0.30;;;22.40;55.10;;;;;;4478749;31;20073;-68
2022/07/17 03:14:54;;;;;;;1.10;0.50;;;22.40;55.10;;;;;;4492944;31;20072;-68
2022/07/17 03:17:20;;;;;;;0.55;0.30;;;22.40;55.10;;;;;;4492688;31;20454;-71
2022/07/17 03:19:46;;;;;;;1.02;0.40;;;22.40;55.10;;;;;;4492544;31;20053;-68
2022/07/17 03:22:11;;;;;;;1.58;0.40;;;22.40;55.10;;;;;;4478502;31;20124;-68
2022/07/17 03:24:37;;;;;;;1.00;0.40;;;22.40;55.10;;;;;;4492566;31;20411;-68
2022/07/17 03:27:03;;;;;;;0.90;0.40;;;22.40;55.10;;;;;;4492659;31;20084;-68
2022/07/17 03:29:29;;;;;;;3.33;0.52;;;22.40;55.10;;;;;;4478394;31;20094;-68
2022/07/17 03:31:55;;;;;;;0.52;0.30;;;22.40;55.20;;;;;;4493050;31;20201;-68
2022/07/17 03:34:21;;;;;;;0.65;0.40;;;22.40;55.20;;;;;;4492657;31;20128;-69
2022/07/17 03:36:47;;;;;;;0.85;0.40;;;22.40;55.20;;;;;;4492368;31;20069;-68
2022/07/17 03:39:14;;;;;;;0.68;0.30;;;22.40;55.20;;;;;;4492594;31;20182;-68
2022/07/17 03:41:40;;;;;;;0.40;0.28;;;22.40;55.20;;;;;;4492428;31;20586;-68
2022/07/17 03:44:05;;;;;;;0.60;0.30;;;22.40;55.30;;;;;;4492611;31;20161;-68
2022/07/17 03:46:31;;;;;;;0.55;0.28;;;22.40;55.30;;;;;;4492161;31;20111;-68
2022/07/17 03:48:57;;;;;;;0.60;0.40;;;22.40;55.30;;;;;;4492439;31;20054;-68
2022/07/17 03:51:23;;;;;;;0.70;0.30;;;22.30;55.30;;;;;;4492348;31;20204;-68
2022/07/17 03:53:49;;;;;;;0.75;0.40;;;22.40;55.40;;;;;;4492121;31;20492;-68
2022/07/17 03:56:15;;;;;;;0.63;0.30;;;22.40;55.40;;;;;;4492344;31;20514;-68
2022/07/17 03:58:41;;;;;;;0.63;0.40;;;22.40;55.40;;;;;;4492100;31;20596;-68
2022/07/17 04:01:08;;;;;;;1.00;0.40;;;22.30;55.40;;;;;;4492254;31;20095;-68
2022/07/17 04:03:33;;;;;;;0.80;0.30;;;22.30;55.40;;;;;;4492064;31;20085;-68
2022/07/17 04:05:59;;;;;;;0.88;0.30;;;22.30;55.40;;;;;;4478191;31;20648;-68
2022/07/17 04:08:25;;;;;;;0.40;0.30;;;22.30;55.40;;;;;;4492075;31;20065;-68
2022/07/17 04:10:51;;;;;;;0.47;0.30;;;22.30;55.40;;;;;;4491817;31;20530;-68
2022/07/17 04:13:17;;;;;;;0.50;0.20;;;22.30;55.40;;;;;;4492142;31;20076;-68
2022/07/17 04:15:49;;;;;;;0.82;0.57;;;22.30;55.40;;;;;;4491710;31;20661;-68
2022/07/17 04:18:15;;;;;;;0.75;0.30;;;22.30;55.50;;;;;;4491838;31;20210;-68
2022/07/17 04:20:42;;;;;;;0.80;0.35;;;22.30;55.50;;;;;;4491854;31;20223;-68
2022/07/17 04:23:08;;;;;;;0.70;0.30;;;22.30;55.50;;;;;;4477954;31;20261;-68
2022/07/17 04:25:34;;;;;;;0.60;0.35;;;22.20;55.50;;;;;;4477690;31;20077;-68
2022/07/17 04:28:00;;;;;;;0.57;0.25;;;22.20;55.50;;;;;;4491981;31;20061;-68
2022/07/17 04:30:26;;;;;;;0.70;0.30;;;22.30;55.60;;;;;;4491906;31;20407;-68
2022/07/17 04:32:51;;;;;;;0.40;0.22;;;22.30;55.60;;;;;;4477581;31;20132;-68
2022/07/17 04:35:17;;;;;;;0.77;0.30;;;22.30;55.60;;;;;;4491890;31;20154;-68
2022/07/17 04:37:43;;;;;;;0.77;0.30;;;22.30;55.60;;;;;;4491569;31;20543;-68
2022/07/17 04:40:11;;;;;;;1.35;0.25;;;22.20;55.50;;;;;;4491668;31;20092;-68
2022/07/17 04:42:37;;;;;;;0.68;0.38;;;22.20;55.60;;;;;;4491641;31;20306;-68
2022/07/17 04:45:04;;;;;;;0.30;0.30;;;22.20;55.60;;;;;;4491704;31;20097;-68
2022/07/17 04:47:30;;;;;;;0.95;0.20;;;22.20;55.60;;;;;;4491568;31;20069;-68
2022/07/17 04:49:56;;;;;;;0.75;0.32;;;22.20;55.60;;;;;;4491541;31;20150;-68
2022/07/17 04:52:22;;;;;;;1.13;0.25;;;22.20;55.70;;;;;;4491478;31;20108;-68
2022/07/17 04:54:48;;;;;;;0.43;0.30;;;22.20;55.70;;;;;;4491437;31;20194;-68
2022/07/17 04:57:14;;;;;;;0.90;0.40;;;22.20;55.70;;;;;;4491327;31;20073;-68
2022/07/17 04:59:40;;;;;;;0.57;0.40;;;22.20;55.70;;;;;;4491673;31;20077;-68
2022/07/17 05:02:07;;;;;;;0.60;0.22;;;22.20;55.70;;;;;;4491319;31;20148;-68
2022/07/17 05:04:33;;;;;;;0.70;0.25;;;22.20;55.70;;;;;;4491522;31;20084;-68
2022/07/17 05:06:59;;;;;;;0.75;0.22;;;22.20;55.70;;;;;;4491331;31;20061;-68
2022/07/17 05:09:25;;;;;;;0.40;0.20;;;22.20;55.80;;;;;;4491741;31;20170;-68
2022/07/17 05:11:50;;;;;;;0.52;0.22;;;22.20;55.80;;;;;;4491800;31;20220;-68
2022/07/17 05:14:17;;;;;;;0.30;0.30;;;22.20;55.80;;;;;;4495990;31;20069;-68
2022/07/17 05:16:42;;;;;;;0.43;0.40;;;22.20;55.80;;;;;;4482312;31;20508;-68
2022/07/17 05:19:08;;;;;;;0.40;0.20;;;22.20;55.90;;;;;;4496585;31;20061;-68
2022/07/17 05:21:34;;;;;;;1.92;0.73;;;22.10;55.70;;;;;;4496644;31;20153;-68
2022/07/17 05:24:00;;;;;;;0.77;0.22;;;22.20;55.90;;;;;;4496441;31;20387;-68
2022/07/17 05:26:26;;;;;;;1.20;0.32;;;22.20;56.80;;;;;;4467859;31;20167;-68
2022/07/17 05:28:52;;;;;;;0.88;0.28;;;22.20;55.90;;;;;;4483495;31;20187;-68
2022/07/17 05:31:18;;;;;;;0.50;0.28;;;22.10;55.90;;;;;;4481702;31;20088;-68
2022/07/17 05:33:44;;;;;;;0.20;0.20;;;22.20;55.90;;;;;;4489118;31;20521;-68
2022/07/17 05:36:10;;;;;;;0.60;0.28;;;22.10;55.90;;;;;;4496316;31;20091;-69
2022/07/17 05:38:37;;;;;;;0.43;0.20;;;22.10;55.90;;;;;;4496641;31;20073;-68
2022/07/17 05:41:03;;;;;;;0.60;0.30;;;22.20;55.90;;;;;;4475020;31;20077;-69
2022/07/17 05:43:29;;;;;;;0.52;0.30;;;22.20;55.90;;;;;;4486692;31;20157;-68
2022/07/17 05:45:56;;;;;;;0.50;0.20;;;22.20;55.90;;;;;;4480361;31;20077;-68
2022/07/17 05:48:23;;;;;;;0.70;0.30;;;22.20;55.90;;;;;;4483998;31;20121;-69
2022/07/17 05:50:49;;;;;;;0.70;0.20;;;22.20;55.90;;;;;;4483718;31;20084;-69
2022/07/17 05:53:15;;;;;;;1.15;0.38;;;22.20;55.80;;;;;;4486459;31;20124;-67
2022/07/17 05:55:41;;;;;;;0.35;0.20;;;22.20;55.90;;;;;;4482757;31;20080;-68
2022/07/17 05:58:07;;;;;;;0.75;0.38;;;22.20;55.90;;;;;;4485767;31;20137;-68
2022/07/17 06:00:34;;;;;;;0.50;0.30;;;22.20;55.90;;;;;;4496099;31;20084;-68
2022/07/17 06:03:01;;;;;;;0.40;0.20;;;22.20;55.90;;;;;;4496158;31;20226;-69
2022/07/17 06:05:27;;;;;;;0.30;0.20;;;22.20;55.90;;;;;;4496099;31;20069;-68
2022/07/17 06:07:54;;;;;;;0.95;0.35;;;22.20;55.90;;;;;;4496532;31;20084;-68
2022/07/17 06:10:20;;;;;;;0.60;0.38;;;22.20;55.90;;;;;;4495989;31;20211;-69
2022/07/17 06:12:46;;;;;;;0.35;0.28;;;22.20;56.00;;;;;;4496390;31;20061;-68
2022/07/17 06:15:12;;;;;;;1.08;0.40;;;22.20;55.90;;;;;;4495798;31;20183;-68
2022/07/17 06:17:38;;;;;;;0.20;0.20;;;22.20;56.00;;;;;;4495910;31;20096;-68
2022/07/17 06:20:05;;;;;;;0.57;0.30;;;22.20;56.00;;;;;;4495995;31;20073;-69
2022/07/17 06:22:30;;;;;;;0.77;0.20;;;22.20;56.20;;;;;;4496081;31;21342;-68
2022/07/17 06:24:57;;;;;;;1.02;0.40;;;22.20;56.10;;;;;;4494367;31;20080;-68
2022/07/17 06:27:23;;;;;;;1.13;0.30;;;22.20;56.10;;;;;;4471105;31;20080;-68
2022/07/17 06:29:49;;;;;;;0.52;0.22;;;22.20;56.10;;;;;;4493545;31;20142;-68
2022/07/17 06:32:16;;;;;;;0.35;0.20;;;22.20;56.00;;;;;;4493527;31;20658;-68
2022/07/17 06:34:42;;;;;;;1.05;0.28;;;22.20;56.10;;;;;;4493291;31;20333;-68
2022/07/17 06:37:08;;;;;;;0.70;0.30;;;22.20;56.10;;;;;;4493441;31;20277;-68
2022/07/17 06:39:35;;;;;;;0.20;0.10;;;22.20;56.20;;;;;;4493411;31;20505;-68
2022/07/17 06:42:01;;;;;;;0.77;0.30;;;22.10;56.10;;;;;;4493333;31;20089;-68
2022/07/17 06:44:27;;;;;;;0.35;0.20;;;22.20;56.20;;;;;;4493232;31;20135;-68
2022/07/17 06:46:53;;;;;;;0.30;0.30;;;22.20;56.20;;;;;;4492141;31;20065;-68
2022/07/17 06:49:19;;;;;;;0.40;0.20;;;22.10;56.20;;;;;;4475855;31;20525;-68
2022/07/17 06:51:45;;;;;;;0.32;0.20;;;22.20;56.20;;;;;;4479004;31;20482;-68
2022/07/17 06:54:15;;;;;;;0.75;0.35;;;22.10;56.20;;;;;;4493244;31;20080;-68
2022/07/17 06:56:41;;;;;;;0.40;0.30;;;22.10;56.20;;;;;;4493151;31;20081;-73
2022/07/17 06:59:07;;;;;;;0.45;0.30;;;22.10;56.20;;;;;;4493203;31;20127;-68
2022/07/17 07:01:35;;;;;;;0.20;0.20;;;22.10;56.20;;;;;;4495310;31;20194;-68
2022/07/17 07:04:02;;;;;;;0.40;0.28;;;22.10;56.20;;;;;;4495009;31;20547;-68
2022/07/17 07:06:28;;;;;;;0.75;0.22;;;22.10;56.20;;;;;;4495101;31;20068;-68
2022/07/17 07:08:54;;;;;;;0.25;0.20;;;22.10;56.20;;;;;;4494879;31;20080;-68
2022/07/17 07:11:21;;;;;;;1.00;0.50;;;22.10;56.20;;;;;;4480351;31;20069;-66
2022/07/17 07:13:47;;;;;;;0.90;0.28;;;22.10;56.30;;;;;;4494072;31;20227;-67
2022/07/17 07:16:13;;;;;;;1.27;0.30;;;22.10;56.20;;;;;;4493857;31;20132;-67
2022/07/17 07:18:38;;;;;;;3.20;0.45;;;22.10;56.20;;;;;;4492511;31;20078;-67
2022/07/17 07:21:04;;;;;;;3.45;0.40;;;22.10;56.20;;;;;;4492805;31;20054;-68
2022/07/17 07:23:30;;;;;;;3.45;0.43;;;22.10;56.20;;;;;;4492788;31;20083;-67
2022/07/17 07:25:56;;;;;;;2.30;0.50;;;22.20;57.30;;;;;;4492649;31;20081;-68
2022/07/17 07:28:22;;;;;;;1.25;0.47;;;22.20;56.50;;;;;;4492590;31;20567;-68
2022/07/17 07:30:48;;;;;;;2.65;0.55;;;22.10;56.60;;;;;;4492628;31;20124;-68
2022/07/17 07:33:15;;;;;;;2.67;0.70;;;22.10;56.50;;;;;;4491424;31;20061;-67
2022/07/17 07:35:42;;;;;;;2.15;0.60;;;22.20;56.70;;;;;;4492266;31;20093;-67
2022/07/17 07:38:08;;;;;;;3.42;0.88;;;22.20;56.60;;;;;;4492422;31;20087;-67
2022/07/17 07:40:35;;;;;;;5.47;0.77;;;22.20;57.40;;;;;;4492478;31;20065;-68
2022/07/17 07:43:00;;;;;;;2.50;0.90;;;22.20;56.30;;;;;;4492386;31;20153;-67
2022/07/17 07:45:26;;;;;;;7.00;1.05;;;22.30;56.30;;;;;;4492284;31;20085;-68
2022/07/17 07:47:53;;;;;;;2.67;0.70;;;22.40;56.40;;;;;;4492098;31;20139;-67
2022/07/17 07:50:21;;;;;;;2.92;0.70;;;22.40;56.40;;;;;;4490980;31;20143;-67
2022/07/17 07:52:47;;;;;;;4.40;0.93;;;22.40;56.40;;;;;;4492118;31;20100;-68
2022/07/17 07:55:14;;;;;;;3.50;0.75;;;22.40;56.20;;;;;;4491877;31;20073;-68
2022/07/17 07:57:40;;;;;;;5.10;1.00;;;22.50;56.00;;;;;;4492465;31;20081;-67
2022/07/17 08:00:07;;;;;;;2.42;0.77;;;22.50;55.90;;;;;;4491995;31;20057;-68
2022/07/17 08:02:34;;;;;;;5.78;0.90;;;22.50;55.70;;;;;;4478337;31;20096;-67
2022/07/17 08:05:01;;;;;;;5.10;1.00;;;22.50;55.60;;;;;;4492192;31;20209;-68
2022/07/17 08:07:29;;;;;;;4.88;1.15;;;22.60;55.40;;;;;;4492068;31;20211;-67
2022/07/17 08:09:55;;;;;;;4.57;0.98;;;22.60;55.20;;;;;;4492224;31;20140;-67
2022/07/17 08:12:22;;;;;;;3.35;0.65;;;22.60;54.90;;;;;;4491862;31;20065;-68
2022/07/17 08:14:49;;;;;;;3.85;0.95;;;22.70;54.80;;;;;;4491846;31;20073;-68
2022/07/17 08:17:15;;;;;;;3.88;1.00;;;22.70;54.70;;;;;;4491703;31;20425;-68
2022/07/17 08:19:41;;;;;;;6.53;0.93;;;22.70;55.50;;;;;;4492140;31;20089;-67
2022/07/17 08:22:07;;;;;;;3.70;0.90;;;22.80;54.60;;;;;;4492022;31;20209;-67
2022/07/17 08:24:32;;;;;;;6.72;1.45;;;22.80;54.50;;;;;;4491722;31;20144;-67
2022/07/17 08:26:58;;;;;;;2.92;0.90;;;22.80;54.50;;;;;;4492005;31;20073;-67
2022/07/17 08:29:24;;;;;;;4.20;1.00;;;22.90;54.20;;;;;;4491707;31;20069;-67
2022/07/17 08:31:52;;;;;;;3.50;0.70;;;22.90;54.00;;;;;;4491786;31;20061;-68
2022/07/17 08:34:18;;;;;;;6.78;1.13;;;22.90;53.90;;;;;;4491528;31;20484;-68
2022/07/17 08:36:44;;;;;;;6.32;1.45;;;22.90;53.80;;;;;;4491746;31;20081;-67
2022/07/17 08:39:09;;;;;;;5.13;1.05;;;22.90;53.80;;;;;;4491904;31;20497;-67
2022/07/17 08:41:37;;;;;;;3.45;1.08;;;22.90;53.80;;;;;;4477308;31;20211;-67
2022/07/17 08:44:07;;;;;;;6.38;1.05;;;23.00;53.80;;;;;;4491511;31;20218;-67
2022/07/17 08:46:37;;;;;;;3.30;0.85;;;23.00;53.60;;;;;;4491486;31;20077;-67
2022/07/17 08:49:04;;;;;;;4.90;1.10;;;23.10;53.60;;;;;;4491013;31;20121;-66
2022/07/17 08:51:30;;;;;;;2.83;0.90;;;23.00;53.50;;;;;;4491375;31;20085;-67
2022/07/17 08:53:57;;;;;;;4.75;0.90;;;23.10;53.60;;;;;;4477311;31;20065;-66
2022/07/17 08:56:24;;;;;;;5.55;0.95;;;23.10;53.60;;;;;;4491557;31;20069;-67
2022/07/17 08:58:50;;;;;;;4.00;1.02;;;23.10;53.50;;;;;;4491383;31;20132;-67
2022/07/17 09:01:18;;;;;;;4.78;1.02;;;23.10;53.50;;;;;;4491505;31;20174;-67
2022/07/17 09:03:59;;;;;;;5.20;0.90;;;23.10;53.50;;;;;;4491175;31;20158;-66
2022/07/17 09:06:27;;;;;;;3.78;0.80;;;23.20;53.50;;;;;;4477157;31;20115;-67
2022/07/17 09:09:14;;;;;;;3.35;0.80;;;23.20;53.30;;;;;;4491195;31;20109;-67
2022/07/17 09:11:46;;;;;;;2.97;0.88;;;23.20;52.80;;;;;;4491483;31;20510;-67
2022/07/17 09:14:13;;;;;;;2.90;1.20;;;23.30;52.80;;;;;;4490975;31;20068;-67
2022/07/17 09:16:54;;;;;;;5.72;1.25;;;23.30;52.80;;;;;;4491370;32;20430;-67
2022/07/17 09:19:31;;;;;;;3.45;1.00;;;23.30;52.50;;;;;;4491230;32;20069;-67
2022/07/17 09:22:15;;;;;;;2.47;0.88;;;23.30;52.20;;;;;;4491383;32;20166;-66
2022/07/17 09:24:51;;;;;;;4.05;0.85;;;23.40;52.10;;;;;;4480807;32;20073;-67
2022/07/17 09:27:23;;;;;;;4.95;1.20;;;23.40;52.10;;;;;;4491206;32;20081;-66
2022/07/17 09:29:51;;;;;;;8.68;1.30;;;23.40;52.00;;;;;;4481003;32;20149;-67
2022/07/17 09:32:21;;;;;;;4.57;1.02;;;23.40;51.90;;;;;;4491275;32;20081;-66
2022/07/17 09:34:52;;;;;;;4.63;0.90;;;23.40;51.90;;;;;;4491015;32;20138;-66
2022/07/17 09:37:18;;;;;;;2.10;0.80;;;23.40;51.70;;;;;;4491120;32;20109;-67
2022/07/17 09:39:44;;;;;;;4.38;1.10;;;23.40;51.70;;;;;;4490816;32;20092;-67
2022/07/17 09:42:31;;;;;;;3.13;0.73;;;23.50;51.60;;;;;;4477050;32;20221;-67
2022/07/17 09:45:10;;;;;;;3.60;0.90;;;23.50;51.50;;;;;;4491011;32;20238;-67
2022/07/17 09:47:38;;;;;;;2.70;0.80;;;23.50;51.60;;;;;;4490889;32;20219;-67
2022/07/17 09:50:06;;;;;;;3.58;1.10;;;23.50;51.70;;;;;;4490892;32;20088;-67
2022/07/17 09:52:35;;;;;;;3.67;1.10;;;23.50;51.80;;;;;;4490725;32;20135;-66
2022/07/17 09:55:02;;;;;;;4.18;0.90;;;23.50;51.80;;;;;;4490796;32;20392;-67
2022/07/17 09:57:31;;;;;;;3.35;1.10;;;23.60;51.80;;;;;;4490996;32;20061;-66
2022/07/17 10:00:06;;;;;;;5.93;0.90;;;23.60;51.80;;;;;;4492188;31;20065;-66
2022/07/17 10:02:33;;;;;;;3.80;0.95;;;23.60;51.70;;;;;;4493558;31;20128;-67
2022/07/17 10:04:59;;;;;;;2.90;0.93;;;23.60;51.70;;;;;;4479198;31;20167;-67
2022/07/17 10:07:26;;;;;;;3.10;1.05;;;23.60;51.60;;;;;;4479168;31;20215;-67
2022/07/17 10:09:52;;;;;;;4.80;1.13;;;23.60;51.70;;;;;;4493584;31;20107;-67
2022/07/17 10:12:19;;;;;;;1.88;0.70;;;23.60;51.60;;;;;;4493702;31;20061;-67
2022/07/17 10:14:49;;;;;;;3.67;1.10;;;23.60;51.50;;;;;;4493609;31;20481;-67
2022/07/17 10:17:20;;;;;;;4.28;1.10;;;23.60;51.50;;;;;;4493291;31;20510;-67
2022/07/17 10:19:53;;;;;;;3.38;0.90;;;23.60;51.50;;;;;;4493942;31;20166;-67
2022/07/17 10:22:19;;;;;;;2.83;0.82;;;23.70;51.50;;;;;;4493435;31;20100;-70
2022/07/17 10:24:53;;;;;;;4.13;0.85;;;23.70;51.30;;;;;;4493651;31;20502;-67
2022/07/17 10:27:24;;;;;;;2.38;0.80;;;23.70;51.30;;;;;;4493198;31;20085;-67
2022/07/17 10:30:05;;;;;;;3.85;0.70;;;23.70;51.20;;;;;;4493503;31;20065;-67
2022/07/17 10:32:31;;;;;;;2.67;0.93;;;23.80;50.80;;;;;;4491215;31;20092;-67
2022/07/17 10:35:06;;;;;;;3.83;0.70;;;23.70;50.60;;;;;;4490871;31;20069;-68
2022/07/17 10:37:38;;;;;;;2.50;1.00;;;23.70;50.50;;;;;;4493014;31;20086;-69
2022/07/17 10:40:12;;;;;;;2.97;0.88;;;23.70;50.40;;;;;;4493209;31;20073;-67
2022/07/17 10:42:42;;;;;;;1.95;0.80;;;23.70;50.60;;;;;;4493102;31;20269;-68
2022/07/17 10:45:10;;;;;;;2.80;0.80;;;23.70;50.70;;;;;;4491271;31;20211;-68
2022/07/17 10:47:46;;;;;;;3.45;0.93;;;23.70;50.50;;;;;;4492827;31;20170;-67
2022/07/17 10:50:13;;;;;;;2.20;0.77;;;23.80;50.40;;;;;;4491451;31;20081;-70
2022/07/17 10:52:39;;;;;;;1.73;0.90;;;23.70;50.30;;;;;;4492331;31;20553;-68
2022/07/17 10:55:22;;;;;;;3.88;0.82;;;23.80;50.00;;;;;;4493705;31;20158;-69
2022/07/17 10:57:48;;;;;;;3.83;0.88;;;23.80;49.70;;;;;;4492072;31;20088;-68
2022/07/17 11:00:15;;;;;;;2.45;1.00;;;23.80;49.80;;;;;;4476664;31;20081;-68
2022/07/17 11:02:42;;;;;;;1.65;0.77;;;23.80;49.70;;;;;;4492571;31;20065;-68
2022/07/17 11:05:10;;;;;;;5.68;1.13;;;23.80;49.80;;;;;;4492579;31;20091;-69
2022/07/17 11:07:47;;;;;;;3.42;0.80;;;23.80;49.70;;;;;;4491788;31;20195;-68
2022/07/17 11:10:13;;;;;;;2.15;0.85;;;23.90;49.50;;;;;;4494163;31;20588;-67
2022/07/17 11:12:39;;;;;;;4.55;1.05;;;23.90;49.20;;;;;;4480532;31;20076;-67
2022/07/17 11:15:06;;;;;;;4.95;0.82;;;23.90;49.10;;;;;;4492494;31;20131;-67
2022/07/17 11:17:32;;;;;;;3.42;0.70;;;23.90;49.00;;;;;;4492610;31;20104;-67
2022/07/17 11:19:59;;;;;;;1.58;0.80;;;23.90;49.00;;;;;;4492927;31;20253;-67
2022/07/17 11:22:27;;;;;;;4.18;1.00;;;23.90;49.90;;;;;;4492646;31;20091;-68
2022/07/17 11:24:53;;;;;;;3.75;0.82;;;23.90;49.00;;;;;;4465992;31;20413;-67
2022/07/17 11:27:29;;;;;;;3.67;1.00;;;23.90;49.00;;;;;;4492087;31;20100;-68
2022/07/17 11:29:58;;;;;;;3.40;0.98;;;23.90;48.90;;;;;;4478582;31;20065;-67
2022/07/17 11:32:31;;;;;;;2.85;0.93;;;23.90;49.00;;;;;;4492083;31;20073;-69
2022/07/17 11:34:57;;;;;;;1.58;0.82;;;24.00;49.10;;;;;;4494456;31;20092;-68
2022/07/17 11:37:29;;;;;;;5.68;0.90;;;24.00;49.10;;;;;;4491745;31;21009;-69
2022/07/17 11:39:56;;;;;;;3.03;0.70;;;24.00;49.00;;;;;;4462376;31;20158;-68
2022/07/17 11:42:23;;;;;;;2.15;1.00;;;24.00;49.20;;;;;;4477581;31;20198;-69
2022/07/17 11:44:50;;;;;;;3.17;0.88;;;24.00;49.10;;;;;;4492334;31;20092;-68
2022/07/17 11:47:35;;;;;;;5.30;1.27;;;24.00;48.90;;;;;;4491569;31;20100;-68
2022/07/17 11:50:13;;;;;;;2.78;0.80;;;24.00;48.90;;;;;;4493890;31;20099;-68
2022/07/17 11:52:45;;;;;;;3.90;0.95;;;24.00;48.80;;;;;;4491594;31;20069;-68
2022/07/17 11:55:12;;;;;;;5.47;1.02;;;24.10;48.70;;;;;;4491873;31;20084;-69
2022/07/17 11:57:50;;;;;;;2.13;1.02;;;24.00;48.80;;;;;;4492032;31;20111;-69
2022/07/17 12:00:18;;;;;;;3.20;1.23;;;24.10;48.70;;;;;;4491766;31;20264;-68
2022/07/17 12:02:44;;;;;;;1.77;0.73;;;24.10;48.70;;;;;;4490629;31;20140;-69
2022/07/17 12:05:10;;;;;;;2.33;1.20;;;24.10;48.10;;;;;;4491905;31;20073;-68
2022/07/17 12:07:46;;;;;;;4.70;1.20;;;24.10;48.00;;;;;;4490668;31;20422;-68
2022/07/17 12:10:17;;;;;;;4.03;1.45;;;24.10;48.00;;;;;;4492154;31;20242;-68
2022/07/17 12:13:12;;;;;;;2.92;1.30;;;24.10;48.00;;;;;;4484461;31;20258;-68
2022/07/17 12:15:49;;;;;;;5.00;1.13;;;24.10;47.90;;;;;;4474355;31;20134;-67
2022/07/17 12:18:23;;;;;;;2.13;0.98;;;24.20;48.10;;;;;;4476819;31;20151;-67
2022/07/17 12:20:51;;;;;;;2.38;1.10;;;24.20;48.20;;;;;;4492178;31;20156;-67
2022/07/17 12:23:33;;;;;;;3.47;0.88;;;24.20;48.10;;;;;;4491597;31;20688;-69
2022/07/17 12:26:15;;;;;;;1.73;1.00;;;24.20;48.10;;;;;;4491932;31;20073;-68
2022/07/17 12:28:41;;;;;;;2.42;1.27;;;24.10;48.20;;;;;;4491698;31;20144;-69
2022/07/17 12:31:08;;;;;;;5.30;1.33;;;24.20;48.30;;;;;;4491500;31;20210;-69
2022/07/17 12:33:33;;;;;;;3.60;1.70;;;24.20;48.50;;;;;;4488996;31;20214;-69
2022/07/17 12:35:59;;;;;;;3.40;1.35;;;24.20;48.30;;;;;;4491160;31;20493;-69
2022/07/17 12:38:25;;;;;;;6.50;1.38;;;24.20;48.10;;;;;;4491221;31;20230;-69
2022/07/17 12:40:51;;;;;;;3.47;1.45;;;24.20;48.10;;;;;;4491334;31;20081;-69
2022/07/17 12:43:17;;;;;;;4.68;1.35;;;24.30;47.80;;;;;;4491058;31;20514;-69
2022/07/17 12:45:43;;;;;;;3.58;1.77;;;24.30;47.80;;;;;;4491176;31;20120;-69
2022/07/17 12:48:09;;;;;;;3.80;1.50;;;24.30;47.90;;;;;;4490930;31;20073;-69
2022/07/17 12:50:34;;;;;;;2.78;1.35;;;24.30;48.00;;;;;;4476906;31;20162;-68
2022/07/17 12:53:00;;;;;;;4.43;1.40;;;24.30;48.00;;;;;;4491173;31;20138;-69